sensor_id;sensor_type;location;lat;lon;timestamp;pressure;altitude;pressure_sealevel;temperature;humidity
62978;BME280;49073;42.352;23.808;2023-07-02T00:02:16;94093.16;;;17.28;84.03
62978;BME280;49073;42.352;23.808;2023-07-02T00:05:18;94079.84;;;17.41;83.09
62978;BME280;49073;42.352;23.808;2023-07-02T00:08:20;94077.50;;;17.43;83.20
62978;BME280;49073;42.352;23.808;2023-07-02T00:11:20;94077.19;;;17.17;84.60
62978;BME280;49073;42.352;23.808;2023-07-02T00:14:20;94073.59;;;17.24;84.31
62978;BME280;49073;42.352;23.808;2023-07-02T00:17:21;94081.41;;;17.18;85.04
62978;BME280;49073;42.352;23.808;2023-07-02T00:20:22;94081.09;;;17.12;85.81
62978;BME280;49073;42.352;23.808;2023-07-02T00:23:22;94086.84;;;17.38;83.86
62978;BME280;49073;42.352;23.808;2023-07-02T00:26:27;94088.41;;;17.36;81.81
62978;BME280;49073;42.352;23.808;2023-07-02T00:29:27;94070.41;;;17.09;82.87
62978;BME280;49073;42.352;23.808;2023-07-02T00:32:28;94070.31;;;16.89;85.09
62978;BME280;49073;42.352;23.808;2023-07-02T00:35:29;94070.47;;;16.78;86.98
62978;BME280;49073;42.352;23.808;2023-07-02T00:38:29;94074.09;;;16.67;87.90
62978;BME280;49073;42.352;23.808;2023-07-02T00:41:30;94074.53;;;16.90;86.08
62978;BME280;49073;42.352;23.808;2023-07-02T00:44:30;94069.53;;;16.88;86.38
62978;BME280;49073;42.352;23.808;2023-07-02T00:47:35;94078.09;;;17.07;85.14
62978;BME280;49073;42.352;23.808;2023-07-02T00:50:36;94073.31;;;17.18;83.47
62978;BME280;49073;42.352;23.808;2023-07-02T00:53:37;94071.09;;;17.13;82.75
62978;BME280;49073;42.352;23.808;2023-07-02T00:56:38;94066.63;;;17.02;83.99
62978;BME280;49073;42.352;23.808;2023-07-02T00:59:39;94057.34;;;17.07;82.64
62978;BME280;49073;42.352;23.808;2023-07-02T01:02:39;94036.94;;;17.10;82.26
62978;BME280;49073;42.352;23.808;2023-07-02T01:05:44;94038.19;;;17.01;83.31
62978;BME280;49073;42.352;23.808;2023-07-02T01:08:47;94029.78;;;16.99;83.51
62978;BME280;49073;42.352;23.808;2023-07-02T01:11:52;94030.00;;;16.85;83.70
62978;BME280;49073;42.352;23.808;2023-07-02T01:14:57;94040.63;;;16.92;83.11
62978;BME280;49073;42.352;23.808;2023-07-02T01:18:00;94022.69;;;16.85;82.89
62978;BME280;49073;42.352;23.808;2023-07-02T01:21:01;94023.78;;;16.88;83.22
62978;BME280;49073;42.352;23.808;2023-07-02T01:24:06;94038.59;;;16.49;85.23
62978;BME280;49073;42.352;23.808;2023-07-02T01:27:07;94035.41;;;16.57;84.10
62978;BME280;49073;42.352;23.808;2023-07-02T01:30:09;94037.03;;;16.51;84.95
62978;BME280;49073;42.352;23.808;2023-07-02T01:33:10;94038.75;;;16.65;83.86
62978;BME280;49073;42.352;23.808;2023-07-02T01:36:11;94033.31;;;16.69;83.93
62978;BME280;49073;42.352;23.808;2023-07-02T01:39:12;94039.75;;;16.75;82.80
62978;BME280;49073;42.352;23.808;2023-07-02T01:42:19;94064.69;;;16.79;82.41
62978;BME280;49073;42.352;23.808;2023-07-02T01:45:20;94081.19;;;16.81;81.33
62978;BME280;49073;42.352;23.808;2023-07-02T01:48:20;94089.47;;;16.67;83.02
62978;BME280;49073;42.352;23.808;2023-07-02T01:51:21;94090.63;;;16.66;84.42
62978;BME280;49073;42.352;23.808;2023-07-02T01:54:26;94093.16;;;16.49;85.82
62978;BME280;49073;42.352;23.808;2023-07-02T01:57:29;94092.34;;;16.52;87.19
62978;BME280;49073;42.352;23.808;2023-07-02T02:00:30;94086.06;;;16.63;86.75
62978;BME280;49073;42.352;23.808;2023-07-02T02:03:31;94080.84;;;16.79;86.48
62978;BME280;49073;42.352;23.808;2023-07-02T02:06:31;94085.22;;;16.93;85.89
62978;BME280;49073;42.352;23.808;2023-07-02T02:09:32;94086.47;;;16.89;86.05
62978;BME280;49073;42.352;23.808;2023-07-02T02:12:33;94083.00;;;16.88;86.43
62978;BME280;49073;42.352;23.808;2023-07-02T02:15:33;94070.44;;;17.05;85.48
62978;BME280;49073;42.352;23.808;2023-07-02T02:18:34;94082.22;;;17.15;84.88
62978;BME280;49073;42.352;23.808;2023-07-02T02:21:34;94089.72;;;17.27;84.36
62978;BME280;49073;42.352;23.808;2023-07-02T02:24:35;94099.00;;;17.23;84.42
62978;BME280;49073;42.352;23.808;2023-07-02T02:27:37;94084.03;;;17.22;84.78
62978;BME280;49073;42.352;23.808;2023-07-02T02:30:38;94082.25;;;17.35;84.93
62978;BME280;49073;42.352;23.808;2023-07-02T02:33:39;94080.22;;;17.19;87.02
62978;BME280;49073;42.352;23.808;2023-07-02T02:36:40;94090.19;;;17.22;87.57
62978;BME280;49073;42.352;23.808;2023-07-02T02:39:41;94085.41;;;17.30;87.50
62978;BME280;49073;42.352;23.808;2023-07-02T02:42:42;94076.50;;;17.57;86.05
62978;BME280;49073;42.352;23.808;2023-07-02T02:45:42;94065.47;;;17.27;88.49
62978;BME280;49073;42.352;23.808;2023-07-02T02:48:44;94054.81;;;17.20;90.99
62978;BME280;49073;42.352;23.808;2023-07-02T02:51:45;94027.69;;;17.11;92.49
62978;BME280;49073;42.352;23.808;2023-07-02T02:54:46;94033.63;;;17.22;92.96
62978;BME280;49073;42.352;23.808;2023-07-02T02:57:47;94065.00;;;17.33;93.65
62978;BME280;49073;42.352;23.808;2023-07-02T03:00:47;94068.38;;;17.37;94.34
62978;BME280;49073;42.352;23.808;2023-07-02T03:03:49;94076.69;;;17.46;94.26
62978;BME280;49073;42.352;23.808;2023-07-02T03:06:50;94070.94;;;17.44;95.31
62978;BME280;49073;42.352;23.808;2023-07-02T03:09:52;94077.84;;;17.45;95.27
62978;BME280;49073;42.352;23.808;2023-07-02T03:12:53;94060.34;;;17.33;95.62
62978;BME280;49073;42.352;23.808;2023-07-02T03:15:53;94071.72;;;17.21;96.12
62978;BME280;49073;42.352;23.808;2023-07-02T03:18:53;94074.16;;;17.15;96.20
62978;BME280;49073;42.352;23.808;2023-07-02T03:21:54;94080.72;;;17.14;96.69
62978;BME280;49073;42.352;23.808;2023-07-02T03:24:55;94067.59;;;17.16;98.03
62978;BME280;49073;42.352;23.808;2023-07-02T03:27:56;94075.19;;;17.21;98.75
62978;BME280;49073;42.352;23.808;2023-07-02T03:30:56;94062.94;;;17.16;98.97
62978;BME280;49073;42.352;23.808;2023-07-02T03:33:57;94061.66;;;17.25;99.91
62978;BME280;49073;42.352;23.808;2023-07-02T03:36:57;94046.63;;;17.27;99.06
62978;BME280;49073;42.352;23.808;2023-07-02T03:39:58;94037.72;;;17.30;98.07
62978;BME280;49073;42.352;23.808;2023-07-02T03:43:00;94041.94;;;17.32;98.42
62978;BME280;49073;42.352;23.808;2023-07-02T03:46:00;94040.81;;;17.29;99.71
62978;BME280;49073;42.352;23.808;2023-07-02T03:49:02;94047.66;;;17.34;100.00
62978;BME280;49073;42.352;23.808;2023-07-02T03:52:03;94050.69;;;17.36;100.00
62978;BME280;49073;42.352;23.808;2023-07-02T03:55:04;94049.22;;;17.31;100.00
62978;BME280;49073;42.352;23.808;2023-07-02T03:58:05;94054.78;;;17.00;100.00
62978;BME280;49073;42.352;23.808;2023-07-02T04:01:05;94058.63;;;16.99;100.00
62978;BME280;49073;42.352;23.808;2023-07-02T04:04:06;94056.22;;;17.28;100.00
62978;BME280;49073;42.352;23.808;2023-07-02T04:07:07;94037.09;;;17.43;100.00
62978;BME280;49073;42.352;23.808;2023-07-02T04:10:07;94037.25;;;17.36;100.00
62978;BME280;49073;42.352;23.808;2023-07-02T04:13:08;94046.34;;;17.42;100.00
62978;BME280;49073;42.352;23.808;2023-07-02T04:16:08;94050.69;;;17.36;100.00
62978;BME280;49073;42.352;23.808;2023-07-02T04:19:09;94057.47;;;17.44;100.00
62978;BME280;49073;42.352;23.808;2023-07-02T04:22:10;94054.03;;;17.64;100.00
62978;BME280;49073;42.352;23.808;2023-07-02T04:25:14;94057.56;;;17.81;100.00
62978;BME280;49073;42.352;23.808;2023-07-02T04:28:18;94066.00;;;17.83;100.00
62978;BME280;49073;42.352;23.808;2023-07-02T04:31:19;94075.72;;;17.97;100.00
62978;BME280;49073;42.352;23.808;2023-07-02T04:34:19;94081.97;;;17.94;100.00
62978;BME280;49073;42.352;23.808;2023-07-02T04:37:22;94105.72;;;17.99;100.00
62978;BME280;49073;42.352;23.808;2023-07-02T04:40:23;94101.09;;;17.79;100.00
62978;BME280;49073;42.352;23.808;2023-07-02T04:43:23;94107.31;;;17.76;100.00
62978;BME280;49073;42.352;23.808;2023-07-02T04:46:24;94116.44;;;17.82;100.00
62978;BME280;49073;42.352;23.808;2023-07-02T04:49:24;94141.31;;;17.70;100.00
62978;BME280;49073;42.352;23.808;2023-07-02T04:52:25;94151.28;;;17.73;100.00
62978;BME280;49073;42.352;23.808;2023-07-02T04:55:26;94138.41;;;17.81;100.00
62978;BME280;49073;42.352;23.808;2023-07-02T04:58:27;94148.94;;;17.75;100.00
62978;BME280;49073;42.352;23.808;2023-07-02T05:01:28;94158.41;;;17.83;100.00
62978;BME280;49073;42.352;23.808;2023-07-02T05:04:29;94156.75;;;17.89;100.00
62978;BME280;49073;42.352;23.808;2023-07-02T05:07:30;94152.88;;;17.91;100.00
62978;BME280;49073;42.352;23.808;2023-07-02T05:10:31;94147.28;;;17.81;100.00
62978;BME280;49073;42.352;23.808;2023-07-02T05:13:31;94141.06;;;17.84;100.00
62978;BME280;49073;42.352;23.808;2023-07-02T05:16:32;94130.31;;;17.81;100.00
62978;BME280;49073;42.352;23.808;2023-07-02T05:19:32;94135.94;;;17.90;100.00
62978;BME280;49073;42.352;23.808;2023-07-02T05:22:33;94132.06;;;17.91;100.00
62978;BME280;49073;42.352;23.808;2023-07-02T05:25:33;94129.84;;;17.86;100.00
62978;BME280;49073;42.352;23.808;2023-07-02T05:28:34;94120.31;;;17.81;100.00
62978;BME280;49073;42.352;23.808;2023-07-02T05:31:34;94116.84;;;17.81;100.00
62978;BME280;49073;42.352;23.808;2023-07-02T05:34:35;94119.16;;;17.82;100.00
62978;BME280;49073;42.352;23.808;2023-07-02T05:37:35;94116.16;;;17.77;100.00
62978;BME280;49073;42.352;23.808;2023-07-02T05:40:36;94113.19;;;17.71;100.00
62978;BME280;49073;42.352;23.808;2023-07-02T05:43:36;94111.44;;;17.60;100.00
62978;BME280;49073;42.352;23.808;2023-07-02T05:46:38;94105.38;;;17.77;100.00
62978;BME280;49073;42.352;23.808;2023-07-02T05:49:41;94105.03;;;17.74;100.00
62978;BME280;49073;42.352;23.808;2023-07-02T05:52:42;94109.22;;;17.55;100.00
62978;BME280;49073;42.352;23.808;2023-07-02T05:55:43;94104.81;;;17.65;100.00
62978;BME280;49073;42.352;23.808;2023-07-02T05:58:45;94108.38;;;17.82;100.00
62978;BME280;49073;42.352;23.808;2023-07-02T06:01:46;94111.84;;;18.03;100.00
62978;BME280;49073;42.352;23.808;2023-07-02T06:04:46;94112.53;;;18.07;100.00
62978;BME280;49073;42.352;23.808;2023-07-02T06:07:47;94111.97;;;18.16;100.00
62978;BME280;49073;42.352;23.808;2023-07-02T06:10:48;94119.97;;;18.20;100.00
62978;BME280;49073;42.352;23.808;2023-07-02T06:13:48;94113.69;;;18.26;100.00
62978;BME280;49073;42.352;23.808;2023-07-02T06:16:49;94121.41;;;18.44;100.00
62978;BME280;49073;42.352;23.808;2023-07-02T06:31:54;94133.59;;;19.06;100.00
62978;BME280;49073;42.352;23.808;2023-07-02T06:34:55;94139.59;;;19.14;99.34
62978;BME280;49073;42.352;23.808;2023-07-02T06:37:56;94138.56;;;19.08;97.99
62978;BME280;49073;42.352;23.808;2023-07-02T06:40:56;94133.25;;;19.04;99.53
62978;BME280;49073;42.352;23.808;2023-07-02T06:43:57;94140.09;;;19.09;98.58
62978;BME280;49073;42.352;23.808;2023-07-02T06:46:57;94138.56;;;19.08;98.03
62978;BME280;49073;42.352;23.808;2023-07-02T06:49:58;94145.66;;;19.18;100.00
62978;BME280;49073;42.352;23.808;2023-07-02T06:52:59;94134.44;;;19.03;99.97
62978;BME280;49073;42.352;23.808;2023-07-02T06:56:00;94137.72;;;19.11;99.62
62978;BME280;49073;42.352;23.808;2023-07-02T06:59:01;94149.13;;;19.18;100.00
62978;BME280;49073;42.352;23.808;2023-07-02T07:02:02;94134.63;;;19.29;100.00
62978;BME280;49073;42.352;23.808;2023-07-02T07:05:03;94134.19;;;19.47;98.23
62978;BME280;49073;42.352;23.808;2023-07-02T07:08:05;94142.25;;;19.63;98.42
62978;BME280;49073;42.352;23.808;2023-07-02T07:11:06;94138.66;;;19.83;94.47
62978;BME280;49073;42.352;23.808;2023-07-02T07:14:07;94140.84;;;19.88;92.78
62978;BME280;49073;42.352;23.808;2023-07-02T07:17:11;94146.06;;;19.96;94.24
62978;BME280;49073;42.352;23.808;2023-07-02T07:20:13;94155.44;;;20.08;94.40
62978;BME280;49073;42.352;23.808;2023-07-02T07:23:22;94149.50;;;20.13;91.98
62978;BME280;49073;42.352;23.808;2023-07-02T07:26:25;94146.47;;;20.11;86.30
62978;BME280;49073;42.352;23.808;2023-07-02T07:29:27;94147.56;;;20.13;87.76
62978;BME280;49073;42.352;23.808;2023-07-02T07:32:27;94148.63;;;20.16;86.33
62978;BME280;49073;42.352;23.808;2023-07-02T07:35:28;94148.31;;;20.14;86.74
62978;BME280;49073;42.352;23.808;2023-07-02T07:38:30;94154.09;;;20.29;88.72
62978;BME280;49073;42.352;23.808;2023-07-02T07:41:30;94147.38;;;20.20;81.42
62978;BME280;49073;42.352;23.808;2023-07-02T07:44:32;94148.75;;;20.12;83.40
62978;BME280;49073;42.352;23.808;2023-07-02T07:47:33;94152.66;;;20.11;88.79
62978;BME280;49073;42.352;23.808;2023-07-02T07:50:33;94144.41;;;20.15;89.35
62978;BME280;49073;42.352;23.808;2023-07-02T07:53:37;94139.63;;;20.48;86.50
62978;BME280;49073;42.352;23.808;2023-07-02T07:56:38;94136.59;;;20.59;82.38
62978;BME280;49073;42.352;23.808;2023-07-02T07:59:39;94139.09;;;20.67;83.27
62978;BME280;49073;42.352;23.808;2023-07-02T08:02:40;94136.09;;;20.90;85.18
62978;BME280;49073;42.352;23.808;2023-07-02T08:05:40;94128.28;;;21.05;84.17
62978;BME280;49073;42.352;23.808;2023-07-02T08:08:41;94120.38;;;20.98;85.59
62978;BME280;49073;42.352;23.808;2023-07-02T08:11:43;94126.25;;;20.97;80.95
62978;BME280;49073;42.352;23.808;2023-07-02T08:14:44;94122.53;;;21.16;83.87
62978;BME280;49073;42.352;23.808;2023-07-02T08:17:44;94131.72;;;21.32;84.81
62978;BME280;49073;42.352;23.808;2023-07-02T08:20:45;94126.88;;;21.14;83.83
62978;BME280;49073;42.352;23.808;2023-07-02T08:23:46;94118.63;;;21.17;81.21
62978;BME280;49073;42.352;23.808;2023-07-02T08:26:47;94134.78;;;21.21;82.03
62978;BME280;49073;42.352;23.808;2023-07-02T08:29:49;94135.13;;;21.10;83.21
62978;BME280;49073;42.352;23.808;2023-07-02T08:32:50;94129.69;;;21.10;80.71
62978;BME280;49073;42.352;23.808;2023-07-02T08:35:50;94131.97;;;21.12;82.46
62978;BME280;49073;42.352;23.808;2023-07-02T08:38:51;94130.25;;;21.05;78.57
62978;BME280;49073;42.352;23.808;2023-07-02T08:41:51;94135.22;;;21.06;78.91
62978;BME280;49073;42.352;23.808;2023-07-02T08:44:53;94138.81;;;21.03;80.74
62978;BME280;49073;42.352;23.808;2023-07-02T08:47:54;94135.78;;;21.01;84.20
62978;BME280;49073;42.352;23.808;2023-07-02T08:50:56;94137.09;;;20.97;87.96
62978;BME280;49073;42.352;23.808;2023-07-02T08:53:57;94132.09;;;20.95;88.85
62978;BME280;49073;42.352;23.808;2023-07-02T08:56:57;94134.13;;;20.78;90.58
62978;BME280;49073;42.352;23.808;2023-07-02T08:59:58;94136.06;;;20.64;90.41
62978;BME280;49073;42.352;23.808;2023-07-02T09:03:11;94144.19;;;20.64;88.99
62978;BME280;49073;42.352;23.808;2023-07-02T09:06:12;94140.25;;;20.53;88.23
62978;BME280;49073;42.352;23.808;2023-07-02T09:09:13;94143.09;;;20.49;86.39
62978;BME280;49073;42.352;23.808;2023-07-02T09:12:24;94147.25;;;20.80;87.74
62978;BME280;49073;42.352;23.808;2023-07-02T09:15:25;94145.31;;;20.80;87.35
62978;BME280;49073;42.352;23.808;2023-07-02T09:18:25;94144.56;;;20.80;87.43
62978;BME280;49073;42.352;23.808;2023-07-02T09:21:28;94142.06;;;20.98;85.20
62978;BME280;49073;42.352;23.808;2023-07-02T09:24:30;94140.22;;;21.08;87.62
62978;BME280;49073;42.352;23.808;2023-07-02T09:27:34;94136.31;;;21.09;86.15
62978;BME280;49073;42.352;23.808;2023-07-02T09:30:36;94141.31;;;20.98;84.07
62978;BME280;49073;42.352;23.808;2023-07-02T09:33:36;94130.81;;;21.00;84.71
62978;BME280;49073;42.352;23.808;2023-07-02T09:36:37;94132.72;;;21.25;82.70
62978;BME280;49073;42.352;23.808;2023-07-02T09:39:42;94129.66;;;21.36;81.58
62978;BME280;49073;42.352;23.808;2023-07-02T09:42:42;94122.22;;;21.62;81.54
62978;BME280;49073;42.352;23.808;2023-07-02T09:45:45;94130.09;;;21.83;82.90
62978;BME280;49073;42.352;23.808;2023-07-02T09:48:46;94130.19;;;21.79;80.22
62978;BME280;49073;42.352;23.808;2023-07-02T09:51:46;94117.78;;;21.91;76.81
62978;BME280;49073;42.352;23.808;2023-07-02T09:54:47;94116.34;;;21.99;77.02
62978;BME280;49073;42.352;23.808;2023-07-02T09:57:48;94114.50;;;22.18;73.19
62978;BME280;49073;42.352;23.808;2023-07-02T10:00:48;94116.91;;;22.16;72.17
62978;BME280;49073;42.352;23.808;2023-07-02T10:03:49;94122.69;;;22.28;74.37
62978;BME280;49073;42.352;23.808;2023-07-02T10:06:51;94117.22;;;22.41;72.68
62978;BME280;49073;42.352;23.808;2023-07-02T10:09:52;94122.09;;;22.46;70.50
62978;BME280;49073;42.352;23.808;2023-07-02T10:12:53;94125.34;;;22.63;67.67
62978;BME280;49073;42.352;23.808;2023-07-02T10:16:03;94111.38;;;22.74;67.26
62978;BME280;49073;42.352;23.808;2023-07-02T10:19:09;94108.66;;;22.74;60.70
62978;BME280;49073;42.352;23.808;2023-07-02T10:22:10;94102.09;;;22.62;64.08
62978;BME280;49073;42.352;23.808;2023-07-02T10:25:10;94103.94;;;22.65;68.63
62978;BME280;49073;42.352;23.808;2023-07-02T10:28:19;94101.56;;;22.76;69.01
62978;BME280;49073;42.352;23.808;2023-07-02T10:31:22;94094.19;;;22.86;65.30
62978;BME280;49073;42.352;23.808;2023-07-02T10:34:32;94085.13;;;22.80;63.28
62978;BME280;49073;42.352;23.808;2023-07-02T10:37:36;94081.59;;;22.61;66.53
62978;BME280;49073;42.352;23.808;2023-07-02T10:40:38;94080.00;;;22.82;69.15
62978;BME280;49073;42.352;23.808;2023-07-02T10:43:38;94078.66;;;22.87;72.35
62978;BME280;49073;42.352;23.808;2023-07-02T10:46:49;94066.31;;;23.04;75.54
62978;BME280;49073;42.352;23.808;2023-07-02T10:49:49;94069.22;;;23.19;75.14
62978;BME280;49073;42.352;23.808;2023-07-02T10:52:53;94064.91;;;23.59;69.37
62978;BME280;49073;42.352;23.808;2023-07-02T10:55:57;94070.03;;;23.76;67.08
62978;BME280;49073;42.352;23.808;2023-07-02T10:58:58;94066.84;;;23.59;63.91
62978;BME280;49073;42.352;23.808;2023-07-02T11:01:59;94070.16;;;23.72;64.85
62978;BME280;49073;42.352;23.808;2023-07-02T11:05:03;94059.28;;;24.09;65.61
62978;BME280;49073;42.352;23.808;2023-07-02T11:08:08;94065.56;;;24.34;65.30
62978;BME280;49073;42.352;23.808;2023-07-02T11:11:10;94062.06;;;24.43;64.24
62978;BME280;49073;42.352;23.808;2023-07-02T11:14:10;94061.72;;;24.50;63.64
62978;BME280;49073;42.352;23.808;2023-07-02T11:17:11;94064.63;;;24.47;63.29
62978;BME280;49073;42.352;23.808;2023-07-02T11:20:13;94067.13;;;24.60;65.20
62978;BME280;49073;42.352;23.808;2023-07-02T11:26:19;94054.41;;;24.66;63.57
62978;BME280;49073;42.352;23.808;2023-07-02T11:29:19;94054.84;;;24.74;62.03
62978;BME280;49073;42.352;23.808;2023-07-02T11:32:20;94050.06;;;24.93;63.25
62978;BME280;49073;42.352;23.808;2023-07-02T11:35:21;94052.03;;;25.41;61.89
62978;BME280;49073;42.352;23.808;2023-07-02T11:38:22;94047.69;;;25.74;61.07
62978;BME280;49073;42.352;23.808;2023-07-02T11:41:22;94038.31;;;26.05;62.10
62978;BME280;49073;42.352;23.808;2023-07-02T11:44:23;94045.09;;;26.09;60.84
62978;BME280;49073;42.352;23.808;2023-07-02T11:47:24;94039.84;;;26.06;59.38
62978;BME280;49073;42.352;23.808;2023-07-02T11:50:25;94041.34;;;26.37;57.55
62978;BME280;49073;42.352;23.808;2023-07-02T11:53:25;94050.31;;;26.37;57.23
62978;BME280;49073;42.352;23.808;2023-07-02T11:56:26;94040.88;;;26.38;56.93
62978;BME280;49073;42.352;23.808;2023-07-02T11:59:26;94037.47;;;26.13;56.19
62978;BME280;49073;42.352;23.808;2023-07-02T12:02:27;94042.25;;;25.74;57.21
62978;BME280;49073;42.352;23.808;2023-07-02T12:05:30;94037.06;;;25.76;58.35
62978;BME280;49073;42.352;23.808;2023-07-02T12:08:31;94037.75;;;25.85;59.01
62978;BME280;49073;42.352;23.808;2023-07-02T12:11:32;94040.22;;;25.98;55.91
62978;BME280;49073;42.352;23.808;2023-07-02T12:14:33;94038.78;;;25.88;59.68
62978;BME280;49073;42.352;23.808;2023-07-02T12:17:33;94037.09;;;26.21;58.95
62978;BME280;49073;42.352;23.808;2023-07-02T12:20:34;94030.53;;;25.97;56.69
62978;BME280;49073;42.352;23.808;2023-07-02T12:23:34;94033.81;;;25.47;58.85
62978;BME280;49073;42.352;23.808;2023-07-02T12:26:36;94046.00;;;25.12;60.33
62978;BME280;49073;42.352;23.808;2023-07-02T12:29:37;94042.28;;;24.76;63.27
62978;BME280;49073;42.352;23.808;2023-07-02T12:32:38;94038.03;;;24.32;65.17
62978;BME280;49073;42.352;23.808;2023-07-02T12:35:39;94035.91;;;24.36;63.89
62978;BME280;49073;42.352;23.808;2023-07-02T12:38:40;94038.56;;;24.55;66.94
62978;BME280;49073;42.352;23.808;2023-07-02T12:41:40;94047.22;;;24.44;67.31
62978;BME280;49073;42.352;23.808;2023-07-02T12:44:41;94036.72;;;24.95;65.69
62978;BME280;49073;42.352;23.808;2023-07-02T12:47:42;94034.25;;;25.06;63.88
62978;BME280;49073;42.352;23.808;2023-07-02T12:50:55;94029.59;;;25.46;62.76
62978;BME280;49073;42.352;23.808;2023-07-02T12:53:56;94032.19;;;25.40;62.17
62978;BME280;49073;42.352;23.808;2023-07-02T12:56:57;94034.88;;;25.50;61.95
62978;BME280;49073;42.352;23.808;2023-07-02T12:59:59;94030.19;;;25.65;61.82
62978;BME280;49073;42.352;23.808;2023-07-02T13:02:59;94022.84;;;25.71;60.85
62978;BME280;49073;42.352;23.808;2023-07-02T13:06:00;94015.94;;;26.00;58.88
62978;BME280;49073;42.352;23.808;2023-07-02T13:09:00;94026.28;;;26.41;58.62
62978;BME280;49073;42.352;23.808;2023-07-02T13:12:01;94021.06;;;26.58;57.10
62978;BME280;49073;42.352;23.808;2023-07-02T13:15:05;94020.44;;;26.34;55.89
62978;BME280;49073;42.352;23.808;2023-07-02T13:18:05;94013.94;;;26.31;56.04
62978;BME280;49073;42.352;23.808;2023-07-02T13:21:06;94016.97;;;26.33;54.38
62978;BME280;49073;42.352;23.808;2023-07-02T13:24:07;94018.56;;;26.25;56.41
62978;BME280;49073;42.352;23.808;2023-07-02T13:27:12;94014.53;;;26.20;55.37
62978;BME280;49073;42.352;23.808;2023-07-02T13:30:14;94017.34;;;26.26;59.13
62978;BME280;49073;42.352;23.808;2023-07-02T13:33:14;94010.25;;;26.04;59.78
62978;BME280;49073;42.352;23.808;2023-07-02T13:36:15;94015.63;;;25.83;57.43
62978;BME280;49073;42.352;23.808;2023-07-02T13:39:16;94022.03;;;25.80;58.87
62978;BME280;49073;42.352;23.808;2023-07-02T13:42:17;94018.03;;;25.51;60.63
62978;BME280;49073;42.352;23.808;2023-07-02T13:45:17;94021.34;;;25.31;59.36
62978;BME280;49073;42.352;23.808;2023-07-02T13:48:18;94016.13;;;25.18;62.61
62978;BME280;49073;42.352;23.808;2023-07-02T13:51:18;94014.44;;;24.96;64.65
62978;BME280;49073;42.352;23.808;2023-07-02T13:54:19;94007.31;;;24.75;65.66
62978;BME280;49073;42.352;23.808;2023-07-02T13:57:22;94001.88;;;24.99;66.43
62978;BME280;49073;42.352;23.808;2023-07-02T14:00:24;94002.56;;;25.09;60.41
62978;BME280;49073;42.352;23.808;2023-07-02T14:03:24;94005.56;;;25.35;57.70
62978;BME280;49073;42.352;23.808;2023-07-02T14:06:25;94009.84;;;25.51;56.53
62978;BME280;49073;42.352;23.808;2023-07-02T14:09:29;93997.06;;;25.58;58.54
62978;BME280;49073;42.352;23.808;2023-07-02T14:12:31;94003.41;;;25.39;57.78
62978;BME280;49073;42.352;23.808;2023-07-02T14:15:32;94009.16;;;25.41;56.04
62978;BME280;49073;42.352;23.808;2023-07-02T14:18:33;94005.19;;;25.42;57.47
62978;BME280;49073;42.352;23.808;2023-07-02T14:21:35;94006.25;;;25.21;60.36
62978;BME280;49073;42.352;23.808;2023-07-02T14:24:38;94009.59;;;24.67;62.67
62978;BME280;49073;42.352;23.808;2023-07-02T14:27:41;94004.09;;;24.86;64.25
62978;BME280;49073;42.352;23.808;2023-07-02T14:30:59;94006.03;;;25.34;63.47
62978;BME280;49073;42.352;23.808;2023-07-02T14:34:00;94004.44;;;25.42;63.28
62978;BME280;49073;42.352;23.808;2023-07-02T14:37:02;94000.19;;;25.65;60.52
62978;BME280;49073;42.352;23.808;2023-07-02T14:40:06;94013.13;;;25.55;60.85
62978;BME280;49073;42.352;23.808;2023-07-02T14:43:08;94020.34;;;25.44;60.95
62978;BME280;49073;42.352;23.808;2023-07-02T14:46:09;94014.38;;;25.30;56.86
62978;BME280;49073;42.352;23.808;2023-07-02T14:49:10;94011.56;;;25.24;59.11
62978;BME280;49073;42.352;23.808;2023-07-02T14:52:10;94011.13;;;25.41;62.43
62978;BME280;49073;42.352;23.808;2023-07-02T14:55:12;94021.38;;;25.07;62.62
62978;BME280;49073;42.352;23.808;2023-07-02T14:58:15;94036.84;;;24.76;66.51
62978;BME280;49073;42.352;23.808;2023-07-02T15:01:22;94038.31;;;24.34;67.69
62978;BME280;49073;42.352;23.808;2023-07-02T15:04:23;94030.88;;;24.01;68.37
62978;BME280;49073;42.352;23.808;2023-07-02T15:07:23;94032.81;;;24.01;70.70
62978;BME280;49073;42.352;23.808;2023-07-02T15:10:34;94040.66;;;24.17;70.42
62978;BME280;49073;42.352;23.808;2023-07-02T15:13:39;94044.00;;;23.93;70.14
62978;BME280;49073;42.352;23.808;2023-07-02T15:16:41;94054.16;;;23.74;69.53
62978;BME280;49073;42.352;23.808;2023-07-02T15:19:41;94049.19;;;23.63;68.85
62978;BME280;49073;42.352;23.808;2023-07-02T15:22:42;94060.81;;;23.54;69.29
62978;BME280;49073;42.352;23.808;2023-07-02T15:25:43;94051.44;;;23.28;70.50
62978;BME280;49073;42.352;23.808;2023-07-02T15:28:43;94053.69;;;23.29;72.40
62978;BME280;49073;42.352;23.808;2023-07-02T15:31:44;94054.78;;;22.81;72.03
62978;BME280;49073;42.352;23.808;2023-07-02T15:34:46;94057.25;;;22.98;71.98
62978;BME280;49073;42.352;23.808;2023-07-02T15:37:46;94063.63;;;23.14;71.22
62978;BME280;49073;42.352;23.808;2023-07-02T15:40:49;94061.84;;;23.29;70.70
62978;BME280;49073;42.352;23.808;2023-07-02T15:43:50;94058.22;;;23.32;71.39
62978;BME280;49073;42.352;23.808;2023-07-02T15:46:52;94064.25;;;23.18;72.18
62978;BME280;49073;42.352;23.808;2023-07-02T15:49:53;94057.03;;;23.43;71.67
62978;BME280;49073;42.352;23.808;2023-07-02T15:52:53;94056.22;;;23.23;70.75
62978;BME280;49073;42.352;23.808;2023-07-02T15:55:57;94065.28;;;23.20;72.80
62978;BME280;49073;42.352;23.808;2023-07-02T15:58:59;94070.28;;;23.22;72.72
62978;BME280;49073;42.352;23.808;2023-07-02T16:02:00;94062.03;;;23.35;74.40